Bombala, Australia
Current Conditions -  °F | °C
As of 7:00 PM on Thursday 27 Nov 2014 (Local Time) from YMER Reporting Station
Broken Clouds Broken Clouds  
Wind Chill: 64°   Ceiling: 4800
Heat Index: 64°   Visibility: 6mi
Dew Point: 54°   Wind: 7mph
Humidity: 68%   Direction: 100°E
Pressure: 30.21"   Gusts: NA
Location:  36.91°S, 149.24°E
Report Text: YMER 270800Z AUTO 10006KT 9999 // BKN048 18/12 Q1023
Loading
Personal Weather Stations






























Interactive Weather Map New forecast layout! Learn more

10-Day Weather Forecast

Advertisements
Track Severe Weather on mobile